createdAt,value
2022-11-05T00:10:21.864Z,75.95
2022-11-05T00:13:08.849Z,76.24
2022-11-05T00:21:09.914Z,75.94
2022-11-05T00:38:17.236Z,75.62
2022-11-05T00:40:54.873Z,75.92
2022-11-05T00:48:12.379Z,75.51
2022-11-05T00:53:57.101Z,75.84
2022-11-05T01:27:22.733Z,75.84
2022-11-05T01:29:50.827Z,75.92
2022-11-05T01:32:20.455Z,75.85
2022-11-05T01:34:48.907Z,75.80
2022-11-05T01:37:24.359Z,75.81
2022-11-05T01:48:13.530Z,75.81
2022-11-05T01:50:47.343Z,75.90
2022-11-05T01:53:22.871Z,75.98
2022-11-05T01:58:48.565Z,75.91
2022-11-05T02:01:16.795Z,75.71
2022-11-05T02:03:47.255Z,75.85
2022-11-05T02:06:17.389Z,75.67
2022-11-05T02:08:58.914Z,75.57
2022-11-05T02:11:26.904Z,75.50
2022-11-05T02:19:36.935Z,75.90
2022-11-05T02:22:38.539Z,75.94
2022-11-05T02:25:28.566Z,76.00
2022-11-05T02:28:24.023Z,75.97
2022-11-05T02:31:04.366Z,76.35
2022-11-05T02:33:40.784Z,76.39
2022-11-05T02:36:24.398Z,76.20
2022-11-05T02:39:07.978Z,76.22
2022-11-05T02:41:44.296Z,76.12
2022-11-05T02:44:20.327Z,76.51
2022-11-05T02:46:57.615Z,76.36
2022-11-05T02:49:35.462Z,76.33
2022-11-05T02:52:07.762Z,76.54
2022-11-05T02:54:44.946Z,76.59
2022-11-05T02:57:13.370Z,76.69
2022-11-05T02:59:41.484Z,76.25
2022-11-05T03:02:18.915Z,76.29
2022-11-05T03:11:31.888Z,76.26
2022-11-05T03:14:45.987Z,76.35
2022-11-05T03:17:36.455Z,76.60
2022-11-05T03:20:15.231Z,76.46
2022-11-05T03:22:52.864Z,76.55
2022-11-05T03:25:27.966Z,76.41
2022-11-05T03:28:33.887Z,76.53
2022-11-05T03:31:03.781Z,76.29
2022-11-05T03:46:21.037Z,76.17
2022-11-05T03:48:55.128Z,75.60
2022-11-05T03:51:30.299Z,76.15
2022-11-05T03:54:02.054Z,76.23
2022-11-05T03:56:43.293Z,76.22
2022-11-05T03:59:35.822Z,76.23
2022-11-05T04:02:04.292Z,76.14
2022-11-05T04:07:42.844Z,76.18
2022-11-05T04:13:52.608Z,75.92
2022-11-05T04:17:12.724Z,76.00
2022-11-05T04:20:57.013Z,76.05
2022-11-05T04:23:54.021Z,76.10
2022-11-05T04:26:23.321Z,75.97
2022-11-05T04:29:08.718Z,75.98
2022-11-05T04:31:36.605Z,75.89
2022-11-05T04:34:05.738Z,75.72
2022-11-05T04:36:44.564Z,75.75
2022-11-05T04:39:13.723Z,75.68
2022-11-05T04:41:41.726Z,75.44
2022-11-05T04:44:09.737Z,75.50
2022-11-05T04:46:37.522Z,75.35
2022-11-05T04:49:05.650Z,75.22
2022-11-05T04:54:46.184Z,75.68
2022-11-05T04:57:14.118Z,75.62
2022-11-05T04:59:42.049Z,75.82
2022-11-05T05:02:09.988Z,75.71
2022-11-05T05:04:37.922Z,75.64
2022-11-05T05:07:05.825Z,75.39
2022-11-05T05:09:33.852Z,75.75
2022-11-05T05:15:56.989Z,75.41
2022-11-05T05:23:01.663Z,75.53
2022-11-05T05:47:33.575Z,75.69
2022-11-05T05:54:52.304Z,75.48
2022-11-05T05:58:09.127Z,75.51
2022-11-05T06:10:15.448Z,75.88
2022-11-05T06:17:00.510Z,76.14
2022-11-05T06:26:58.529Z,76.24
2022-11-05T06:29:30.358Z,76.40
2022-11-05T06:35:05.291Z,76.18
2022-11-05T06:37:34.119Z,76.09
2022-11-05T06:40:03.284Z,76.17
2022-11-05T06:45:27.416Z,75.99
2022-11-05T06:47:58.992Z,75.91
2022-11-05T06:53:17.918Z,75.83
2022-11-05T06:55:52.229Z,75.73
2022-11-05T06:58:20.367Z,75.74
2022-11-05T07:00:48.454Z,75.79
2022-11-05T07:03:16.890Z,76.02
2022-11-05T07:05:47.332Z,76.35
2022-11-05T07:08:15.358Z,76.09
2022-11-05T07:10:44.557Z,75.80
2022-11-05T07:18:14.394Z,75.01
2022-11-05T07:20:46.039Z,74.88
2022-11-05T07:31:55.808Z,74.54
2022-11-05T07:35:18.332Z,74.25
2022-11-05T07:42:04.668Z,74.03
2022-11-05T07:44:58.558Z,74.06
2022-11-05T07:47:26.542Z,74.36
2022-11-05T07:49:54.662Z,74.32
2022-11-05T07:52:25.504Z,74.09
2022-11-05T08:06:39.664Z,71.73
2022-11-05T08:09:07.891Z,71.82
2022-11-05T08:11:37.246Z,71.36
2022-11-05T08:14:05.101Z,71.56
2022-11-05T08:16:33.182Z,68.55
2022-11-05T08:19:01.103Z,66.90
2022-11-05T08:21:29.311Z,65.99
2022-11-05T08:23:59.420Z,65.07
2022-11-05T08:26:37.050Z,65.56
2022-11-05T08:29:56.650Z,66.08
2022-11-05T08:32:25.849Z,65.77
2022-11-05T08:34:54.051Z,65.34
2022-11-05T08:37:22.069Z,60.84
2022-11-05T08:39:49.826Z,57.71
2022-11-05T08:45:54.886Z,48.99
2022-11-05T08:48:24.175Z,44.30
2022-11-05T08:50:51.946Z,41.66
2022-11-05T08:53:20.148Z,40.22
2022-11-05T08:55:49.974Z,40.40
2022-11-05T08:58:18.300Z,41.07
2022-11-05T09:00:48.339Z,40.43
2022-11-05T09:03:17.272Z,39.90
2022-11-05T09:05:46.508Z,39.37
2022-11-05T09:08:16.635Z,39.82
2022-11-05T09:10:45.571Z,41.22
2022-11-05T09:13:18.686Z,40.40
2022-11-05T09:15:47.539Z,38.04
2022-11-05T09:18:15.747Z,38.33
2022-11-05T09:20:46.562Z,39.59
2022-11-05T09:23:16.300Z,39.21
2022-11-05T09:25:44.714Z,38.62
2022-11-05T09:28:17.202Z,38.38
2022-11-05T09:30:47.639Z,36.55
2022-11-05T09:33:16.793Z,37.00
2022-11-05T09:35:44.660Z,37.06
2022-11-05T09:38:14.474Z,37.20
2022-11-05T09:40:49.946Z,37.71
2022-11-05T09:43:20.286Z,39.41
2022-11-05T09:45:51.303Z,40.98
2022-11-05T09:48:25.789Z,39.74
2022-11-05T09:50:54.711Z,40.69
2022-11-05T09:53:24.379Z,41.41
2022-11-05T09:55:57.298Z,42.75
2022-11-05T09:58:35.974Z,44.17
2022-11-05T10:01:07.567Z,44.49
2022-11-05T10:03:40.322Z,43.87
2022-11-05T10:06:10.428Z,42.89
2022-11-05T10:08:43.399Z,40.78
2022-11-05T10:11:18.185Z,40.89
2022-11-05T10:13:49.224Z,41.56
2022-11-05T10:16:25.056Z,42.71
2022-11-05T10:18:56.098Z,45.07
2022-11-05T10:21:44.173Z,42.73
2022-11-05T10:24:15.552Z,41.41
2022-11-05T10:26:48.714Z,42.76
2022-11-05T10:46:58.525Z,42.26
2022-11-05T10:49:43.625Z,36.16
2022-11-05T10:52:24.499Z,31.53
2022-11-05T10:54:54.576Z,29.92
2022-11-05T10:57:33.101Z,31.38
2022-11-05T11:00:28.235Z,31.50
2022-11-05T11:03:00.381Z,29.36
2022-11-05T11:05:32.655Z,30.13
2022-11-05T11:08:04.813Z,32.99
2022-11-05T11:10:42.422Z,33.57
2022-11-05T11:13:20.973Z,35.94
2022-11-05T11:16:37.420Z,37.50
2022-11-05T11:19:25.558Z,40.09
2022-11-05T11:22:21.732Z,39.82
2022-11-05T11:24:53.878Z,40.01
2022-11-05T11:27:29.077Z,38.24
2022-11-05T11:29:59.915Z,37.73
2022-11-05T11:32:33.609Z,36.09
2022-11-05T11:35:04.068Z,37.39
2022-11-05T11:37:35.440Z,36.67
2022-11-05T11:40:10.001Z,35.74
2022-11-05T11:42:41.342Z,35.23
2022-11-05T11:45:28.243Z,35.86
2022-11-05T11:47:57.808Z,31.69
2022-11-05T11:50:51.836Z,32.21
2022-11-05T11:53:34.705Z,33.46
2022-11-05T11:56:15.708Z,34.79
2022-11-05T11:58:49.299Z,36.27
2022-11-05T12:02:14.295Z,36.11
2022-11-05T12:04:59.293Z,36.32
2022-11-05T12:12:10.765Z,38.72
2022-11-05T12:22:22.444Z,44.50
2022-11-05T12:25:15.159Z,45.57
2022-11-05T12:28:01.273Z,44.93
2022-11-05T12:30:38.373Z,47.50
2022-11-05T12:33:38.593Z,46.71
2022-11-05T12:36:32.953Z,46.81
2022-11-05T12:39:30.846Z,47.73
2022-11-05T12:42:23.665Z,48.17
2022-11-05T12:45:20.550Z,48.68
2022-11-05T12:48:37.084Z,48.56
2022-11-05T12:51:40.266Z,48.52
2022-11-05T12:54:22.411Z,50.42
2022-11-05T12:57:09.423Z,50.41
2022-11-05T12:59:45.324Z,49.77
2022-11-05T13:02:36.991Z,49.97
2022-11-05T13:05:13.551Z,50.93
2022-11-05T13:07:53.546Z,52.08
2022-11-05T13:10:27.592Z,51.11
2022-11-05T13:13:05.666Z,52.47
2022-11-05T13:15:50.317Z,52.17
2022-11-05T13:20:16.052Z,53.05
2022-11-05T13:23:33.587Z,53.40
2022-11-05T13:26:08.080Z,52.36
2022-11-05T13:28:45.343Z,52.50
2022-11-05T13:31:19.712Z,51.90
2022-11-05T13:33:50.399Z,53.91
2022-11-05T13:36:41.403Z,53.08
2022-11-05T13:40:19.736Z,52.51
2022-11-05T13:43:47.246Z,52.33
2022-11-05T13:47:13.388Z,52.14
2022-11-05T13:50:39.850Z,51.57
2022-11-05T13:54:25.511Z,52.99
2022-11-05T13:57:11.378Z,52.84
2022-11-05T13:59:55.463Z,53.08
2022-11-05T14:02:28.146Z,52.69
2022-11-05T14:05:08.699Z,52.32
2022-11-05T14:07:49.632Z,52.08
2022-11-05T14:10:33.174Z,52.43
2022-11-05T14:13:16.239Z,53.99
2022-11-05T14:15:56.627Z,52.27
2022-11-05T14:18:41.306Z,53.89
2022-11-05T14:21:33.008Z,55.01
2022-11-05T14:24:19.351Z,54.34
2022-11-05T14:27:25.893Z,54.69
2022-11-05T14:29:54.070Z,55.41
2022-11-05T14:32:27.081Z,54.56
2022-11-05T14:35:07.207Z,55.86
2022-11-05T14:38:15.681Z,55.75
2022-11-05T14:41:01.527Z,56.10
2022-11-05T14:48:25.800Z,55.68
2022-11-05T14:51:25.618Z,56.24
2022-11-05T15:00:15.725Z,56.91
2022-11-05T15:03:26.331Z,57.65
2022-11-05T15:07:14.666Z,58.29
2022-11-05T15:10:38.754Z,58.61
2022-11-05T15:13:48.519Z,58.98
2022-11-05T15:16:35.564Z,59.41
2022-11-05T15:22:37.420Z,59.77
2022-11-05T15:25:17.346Z,60.01
2022-11-05T15:28:22.158Z,60.06
2022-11-05T15:31:06.143Z,60.66
2022-11-05T15:33:35.621Z,60.98
2022-11-05T15:36:11.523Z,60.72
2022-11-05T15:38:56.660Z,60.97
2022-11-05T15:41:35.061Z,61.26
2022-11-05T15:44:04.413Z,61.23
2022-11-05T15:46:32.745Z,61.44
2022-11-05T15:49:06.927Z,61.30
2022-11-05T15:51:38.706Z,61.92
2022-11-05T15:56:58.035Z,62.08
2022-11-05T15:59:28.747Z,62.37
2022-11-05T16:02:03.272Z,62.50
2022-11-05T16:04:34.762Z,62.77
2022-11-05T16:07:11.011Z,63.04
2022-11-05T16:09:53.151Z,63.33
2022-11-05T16:12:35.688Z,63.26
2022-11-05T16:15:20.214Z,63.22
2022-11-05T16:17:51.921Z,63.57
2022-11-05T16:20:29.195Z,63.74
2022-11-05T16:23:00.245Z,63.79
2022-11-05T16:25:33.278Z,64.88
2022-11-05T16:28:01.756Z,64.29
2022-11-05T16:30:30.040Z,64.34
2022-11-05T16:33:04.622Z,64.19
2022-11-05T16:35:34.184Z,64.31
2022-11-05T16:38:02.986Z,64.57
2022-11-05T16:40:33.814Z,64.59
2022-11-05T16:43:18.097Z,64.78
2022-11-05T16:46:03.554Z,64.93
2022-11-05T16:48:52.480Z,65.13
2022-11-05T16:51:27.379Z,65.19
2022-11-05T16:53:55.432Z,65.28
2022-11-05T16:56:23.904Z,65.59
2022-11-05T16:58:53.304Z,65.75
2022-11-05T17:01:25.892Z,65.91
2022-11-05T17:06:58.879Z,66.18
2022-11-05T17:09:39.439Z,66.42
2022-11-05T17:12:11.266Z,66.90
2022-11-05T17:18:39.381Z,66.82
2022-11-05T17:21:33.299Z,66.72
2022-11-05T17:24:16.784Z,67.01
2022-11-05T17:26:50.835Z,66.78
2022-11-05T17:29:25.618Z,66.94
2022-11-05T17:51:52.623Z,66.99
2022-11-05T17:54:59.211Z,66.92
2022-11-05T17:57:30.161Z,67.51
2022-11-05T18:00:57.026Z,67.97
2022-11-05T18:03:36.696Z,67.62
2022-11-05T18:06:40.450Z,67.82
2022-11-05T18:09:52.160Z,68.04
2022-11-05T18:12:23.271Z,68.26
2022-11-05T18:14:53.666Z,67.94
2022-11-05T18:17:44.631Z,68.20
2022-11-05T18:20:40.153Z,68.01
2022-11-05T18:23:09.630Z,68.31
2022-11-05T18:25:53.040Z,68.57
2022-11-05T18:29:24.438Z,68.21
2022-11-05T18:33:52.848Z,68.26
2022-11-05T18:36:33.608Z,68.55
2022-11-05T18:39:09.013Z,68.69
2022-11-05T18:41:39.551Z,68.68
2022-11-05T18:44:22.969Z,68.81
2022-11-05T18:46:58.103Z,68.58
2022-11-05T18:49:31.982Z,68.88
2022-11-05T18:52:01.886Z,68.78
2022-11-05T18:54:31.203Z,68.95
2022-11-05T18:57:22.163Z,68.98
2022-11-05T19:00:05.665Z,69.11
2022-11-05T19:02:35.159Z,68.94
2022-11-05T19:05:28.055Z,68.83
2022-11-05T19:07:57.102Z,69.06
2022-11-05T19:10:31.730Z,68.90
2022-11-05T19:13:05.404Z,68.98
2022-11-05T19:16:08.391Z,68.59
2022-11-05T19:18:39.952Z,68.87
2022-11-05T19:29:23.870Z,68.70
2022-11-05T19:31:51.689Z,68.78
2022-11-05T19:34:20.530Z,68.92
2022-11-05T19:36:48.427Z,68.93
2022-11-05T19:39:16.519Z,69.25
2022-11-05T19:41:44.477Z,69.42
2022-11-05T19:44:12.449Z,69.54
2022-11-05T19:46:41.612Z,69.72
2022-11-05T19:49:09.419Z,69.81
2022-11-05T19:51:37.778Z,70.10
2022-11-05T19:54:06.213Z,69.94
2022-11-05T19:56:36.684Z,69.93
2022-11-05T19:59:06.466Z,70.09
2022-11-05T20:01:37.025Z,69.90
2022-11-05T20:04:06.639Z,69.93
2022-11-05T20:06:38.537Z,69.84
2022-11-05T20:09:22.135Z,69.76
2022-11-05T20:11:50.884Z,70.03
2022-11-05T20:14:18.780Z,70.02
2022-11-05T20:16:47.785Z,70.17
2022-11-05T20:19:19.360Z,70.21
2022-11-05T20:21:48.046Z,70.07
2022-11-05T20:24:22.465Z,70.18
2022-11-05T20:26:51.950Z,70.15
2022-11-05T20:29:19.797Z,70.45
2022-11-05T20:31:48.029Z,70.56
2022-11-05T20:34:17.125Z,70.70
2022-11-05T20:36:45.413Z,70.63
2022-11-05T20:39:13.192Z,70.78
2022-11-05T20:41:41.147Z,70.61
2022-11-05T20:44:09.101Z,70.79
2022-11-05T20:46:36.976Z,70.67
2022-11-05T20:49:04.704Z,70.77
2022-11-05T21:00:34.560Z,70.79
2022-11-05T21:03:02.510Z,71.02
2022-11-05T21:05:35.295Z,71.31
2022-11-05T21:08:41.966Z,71.32
2022-11-05T21:11:51.364Z,71.49
2022-11-05T21:17:59.092Z,71.34
2022-11-05T21:31:54.829Z,71.70
2022-11-05T21:36:06.905Z,71.86
2022-11-05T21:38:34.727Z,72.45
2022-11-05T21:41:11.390Z,72.94
2022-11-05T21:43:42.988Z,72.92
2022-11-05T21:47:13.668Z,72.73
2022-11-05T21:49:41.695Z,73.04
2022-11-05T21:52:29.110Z,73.12
2022-11-05T21:55:14.456Z,72.96
2022-11-05T21:58:13.006Z,73.27
2022-11-05T22:00:42.794Z,73.08
2022-11-05T22:04:06.396Z,73.34
2022-11-05T22:06:36.220Z,73.48
2022-11-05T22:09:24.388Z,73.53
2022-11-05T22:12:41.225Z,73.47
2022-11-05T22:15:31.109Z,73.28
2022-11-05T22:21:55.879Z,73.32
2022-11-05T22:24:32.008Z,73.56
2022-11-05T22:30:39.364Z,73.30
2022-11-05T22:33:07.364Z,73.30
2022-11-05T22:35:36.603Z,73.59
2022-11-05T22:38:04.888Z,73.55
2022-11-05T22:40:35.784Z,73.62
2022-11-05T22:43:47.416Z,73.51
2022-11-05T22:46:38.922Z,73.49
2022-11-05T22:49:08.047Z,73.77
2022-11-05T22:51:39.204Z,73.90
2022-11-05T22:54:07.871Z,74.20
2022-11-05T22:56:38.454Z,74.37
2022-11-05T22:59:07.874Z,74.43
2022-11-05T23:01:36.972Z,74.59
2022-11-05T23:04:10.338Z,74.74
2022-11-05T23:07:28.179Z,74.49
2022-11-05T23:20:06.354Z,74.57
2022-11-05T23:54:29.364Z,76.19
2022-11-05T23:56:57.179Z,76.53
2022-11-05T23:59:24.973Z,76.80
